Time;durP1;ratioP1;P1;durP2;ratioP2;P2;SDS_P1;SDS_P2;PMS_P1;PMS_P2;Temp;Humidity;BMP_temperature;BMP_pressure;BME280_temperature;BME280_humidity;BME280_pressure;Samples;Min_cycle;Max_cycle;Signal;HPM_P1;HPM_P2
2023/07/06 00:03:39;;;;;;;5.97;4.03;;;16.40;99.90;;;;;;10432929;28;20257;-90
2023/07/06 00:08:42;;;;;;;7.10;3.90;;;16.00;99.90;;;;;;10396514;28;20236;-89
2023/07/06 00:13:45;;;;;;;6.63;3.13;;;15.90;99.90;;;;;;10395544;28;20203;-89
2023/07/06 00:18:48;;;;;;;6.18;3.45;;;15.90;99.90;;;;;;10395434;28;20231;-88
2023/07/06 00:23:50;;;;;;;5.78;3.55;;;15.90;99.90;;;;;;10412394;28;20258;-89
2023/07/06 00:28:55;;;;;;;7.45;3.47;;;15.80;99.90;;;;;;10395168;28;20242;-88
2023/07/06 00:34:04;;;;;;;3.00;2.40;;;15.80;99.90;;;;;;10412043;28;20594;-88
2023/07/06 00:39:10;;;;;;;3.17;2.85;;;15.90;99.90;;;;;;10412244;28;20257;-89
2023/07/06 00:44:46;;;;;;;3.05;2.72;;;16.00;99.90;;;;;;10376877;28;20310;-89
2023/07/06 00:49:50;;;;;;;6.82;3.28;;;15.80;99.90;;;;;;10378028;28;20546;-88
2023/07/06 00:54:53;;;;;;;6.70;2.78;;;15.40;99.90;;;;;;10375231;28;20258;-89
2023/07/06 00:59:57;;;;;;;8.32;3.42;;;15.40;99.90;;;;;;10365738;28;20603;-89
2023/07/06 01:05:04;;;;;;;6.05;3.45;;;15.60;99.90;;;;;;10377711;28;20259;-88
2023/07/06 01:10:09;;;;;;;4.80;2.63;;;15.40;99.90;;;;;;10388948;28;20654;-88
2023/07/06 01:15:12;;;;;;;4.70;3.15;;;15.20;99.90;;;;;;10376810;28;20615;-88
2023/07/06 01:20:50;;;;;;;3.35;2.67;;;15.20;99.90;;;;;;10393447;28;20227;-89
2023/07/06 01:26:04;;;;;;;3.22;2.92;;;15.10;99.90;;;;;;10250576;28;20301;-89
2023/07/06 01:31:27;;;;;;;5.30;3.20;;;15.20;99.90;;;;;;10269526;28;20295;-89
2023/07/06 01:37:22;;;;;;;5.82;3.05;;;15.10;99.90;;;;;;10236299;29;20242;-89
2023/07/06 01:42:29;;;;;;;2.58;2.20;;;14.80;99.90;;;;;;10132796;29;20260;-89
2023/07/06 01:47:36;;;;;;;4.50;3.22;;;14.80;99.90;;;;;;10120911;29;20247;-88
2023/07/06 01:52:59;;;;;;;3.75;3.03;;;14.80;99.90;;;;;;10117828;29;20271;-88
2023/07/06 01:58:08;;;;;;;3.30;2.72;;;14.80;99.90;;;;;;10177331;29;20238;-88
2023/07/06 02:03:12;;;;;;;2.83;2.47;;;14.80;99.90;;;;;;10172387;29;20350;-88
2023/07/06 02:08:16;;;;;;;4.43;3.10;;;14.80;99.90;;;;;;10202551;29;20239;-89
2023/07/06 02:13:20;;;;;;;9.02;3.28;;;14.60;99.90;;;;;;10348680;28;20296;-88
2023/07/06 02:18:24;;;;;;;4.63;2.97;;;14.40;99.90;;;;;;10359572;28;20208;-89
2023/07/06 02:23:26;;;;;;;7.00;3.35;;;14.50;99.90;;;;;;10375073;28;20308;-89
2023/07/06 02:28:29;;;;;;;4.43;2.83;;;14.20;99.90;;;;;;10398878;28;20200;-89
2023/07/06 02:33:34;;;;;;;5.65;2.80;;;14.30;99.90;;;;;;10399783;28;20670;-89
2023/07/06 02:38:37;;;;;;;3.50;2.92;;;14.10;99.90;;;;;;10428121;28;20196;-88
2023/07/06 02:43:41;;;;;;;5.40;2.88;;;14.20;99.90;;;;;;10381290;28;20270;-90
2023/07/06 02:48:44;;;;;;;4.45;2.78;;;14.10;99.90;;;;;;10397821;28;20200;-88
2023/07/06 02:53:47;;;;;;;5.13;2.20;;;14.00;99.90;;;;;;10397318;28;20259;-88
2023/07/06 02:58:50;;;;;;;6.30;3.05;;;14.10;99.90;;;;;;10398224;28;20200;-89
2023/07/06 03:03:52;;;;;;;8.55;3.63;;;14.40;99.90;;;;;;10398180;28;20620;-88
2023/07/06 03:08:55;;;;;;;4.65;3.20;;;14.50;99.90;;;;;;10398786;28;20204;-89
2023/07/06 03:13:59;;;;;;;8.48;3.55;;;14.40;99.90;;;;;;10397781;28;20266;-88
2023/07/06 03:19:02;;;;;;;5.45;3.20;;;14.20;99.90;;;;;;10397843;28;20250;-89
2023/07/06 03:24:10;;;;;;;4.80;3.00;;;13.90;99.90;;;;;;10381039;28;20227;-89
2023/07/06 03:29:12;;;;;;;2.55;2.22;;;14.10;99.90;;;;;;10398988;28;20749;-88
2023/07/06 03:34:15;;;;;;;5.40;2.95;;;14.30;99.90;;;;;;10421429;28;20261;-89
2023/07/06 03:39:17;;;;;;;3.30;2.88;;;14.60;99.90;;;;;;10414649;28;20586;-89
2023/07/06 03:44:21;;;;;;;3.58;2.63;;;14.40;99.90;;;;;;10413305;28;20302;-88
2023/07/06 03:49:24;;;;;;;2.92;2.45;;;14.20;99.90;;;;;;10395975;28;20592;-88
2023/07/06 03:54:27;;;;;;;5.18;2.70;;;14.30;99.90;;;;;;10413093;28;20259;-90
2023/07/06 03:59:31;;;;;;;5.65;2.95;;;14.50;99.90;;;;;;10395289;28;20211;-89
2023/07/06 04:04:34;;;;;;;5.45;3.05;;;14.40;99.90;;;;;;10383400;28;20290;-89
2023/07/06 04:09:38;;;;;;;3.10;2.47;;;14.40;99.90;;;;;;10406526;28;20274;-88
2023/07/06 04:14:42;;;;;;;2.58;2.13;;;14.50;99.90;;;;;;10411946;28;20199;-88
2023/07/06 04:19:45;;;;;;;6.25;2.90;;;14.90;99.90;;;;;;10395078;28;20733;-89
2023/07/06 04:24:47;;;;;;;5.15;2.75;;;15.10;99.90;;;;;;10395200;28;20235;-88
2023/07/06 04:29:49;;;;;;;7.43;2.75;;;15.10;99.90;;;;;;10412944;28;20521;-88
2023/07/06 04:34:52;;;;;;;3.83;2.33;;;15.30;99.90;;;;;;10412367;28;20610;-90
2023/07/06 04:39:55;;;;;;;4.78;3.38;;;15.40;99.90;;;;;;10411693;28;20262;-89
2023/07/06 04:44:57;;;;;;;2.53;2.33;;;15.50;99.90;;;;;;10411064;28;20259;-88
2023/07/06 04:50:00;;;;;;;3.58;1.98;;;15.60;99.90;;;;;;10393354;28;20655;-90
2023/07/06 04:55:10;;;;;;;5.90;2.47;;;15.70;99.90;;;;;;10393331;28;20772;-88
2023/07/06 05:00:18;;;;;;;3.70;2.88;;;15.70;99.90;;;;;;10382616;28;20226;-88
2023/07/06 05:05:22;;;;;;;4.88;2.80;;;15.80;99.90;;;;;;10410913;28;20258;-88
2023/07/06 05:10:26;;;;;;;4.50;2.85;;;16.10;99.90;;;;;;10413153;28;20207;-88
2023/07/06 05:15:29;;;;;;;4.00;2.35;;;16.50;99.90;;;;;;10441171;28;20200;-89
2023/07/06 05:20:32;;;;;;;2.42;2.00;;;16.60;99.90;;;;;;10398531;28;20552;-89
2023/07/06 05:25:46;;;;;;;5.80;2.50;;;16.80;99.90;;;;;;10394822;28;20223;-91
2023/07/06 05:30:50;;;;;;;6.25;2.60;;;17.20;99.90;;;;;;10395676;28;20207;-90
2023/07/06 05:35:52;;;;;;;2.47;2.28;;;17.50;99.90;;;;;;10395260;28;20270;-90
2023/07/06 05:41:01;;;;;;;7.60;2.67;;;18.00;99.60;;;;;;10394600;28;20203;-90
2023/07/06 05:46:04;;;;;;;5.60;2.60;;;18.60;97.60;;;;;;10395431;28;20307;-91
2023/07/06 05:51:07;;;;;;;3.25;2.40;;;18.70;93.40;;;;;;10395312;28;20227;-90
2023/07/06 05:56:11;;;;;;;2.83;2.53;;;19.00;94.40;;;;;;10396223;28;20204;-91
2023/07/06 06:01:13;;;;;;;6.55;1.88;;;19.30;92.90;;;;;;10412573;28;20607;-91
2023/07/06 06:06:16;;;;;;;8.10;2.80;;;19.30;92.70;;;;;;10394575;28;20230;-91
2023/07/06 06:11:21;;;;;;;5.63;2.55;;;19.60;92.50;;;;;;10395947;28;20199;-90
2023/07/06 06:16:23;;;;;;;6.85;2.70;;;19.60;92.30;;;;;;10411780;28;20203;-89
2023/07/06 06:21:27;;;;;;;3.10;2.25;;;19.40;92.20;;;;;;10416106;28;20661;-89
2023/07/06 06:26:30;;;;;;;4.25;2.60;;;19.50;92.10;;;;;;10399638;28;20263;-89
2023/07/06 06:31:33;;;;;;;4.05;2.55;;;19.60;90.70;;;;;;10383090;28;20212;-89
2023/07/06 06:36:36;;;;;;;3.72;2.05;;;19.60;91.30;;;;;;10398729;28;20243;-90
2023/07/06 06:41:39;;;;;;;3.45;2.38;;;19.80;92.40;;;;;;10398808;28;20203;-91
2023/07/06 06:46:45;;;;;;;7.00;2.90;;;19.90;90.90;;;;;;10398412;28;20263;-89
2023/07/06 06:51:48;;;;;;;4.78;2.35;;;20.00;89.60;;;;;;10415378;28;20290;-89
2023/07/06 06:56:50;;;;;;;4.05;1.65;;;20.00;86.80;;;;;;10398227;28;20295;-92
2023/07/06 07:01:54;;;;;;;4.35;2.50;;;20.10;89.20;;;;;;10399401;28;20208;-93
2023/07/06 07:06:57;;;;;;;3.10;2.22;;;20.30;84.80;;;;;;10382283;28;20752;-89
2023/07/06 07:12:00;;;;;;;4.60;2.35;;;20.30;80.00;;;;;;10397189;28;20607;-89
2023/07/06 07:17:04;;;;;;;4.88;2.20;;;20.50;82.60;;;;;;10451627;28;20621;-90
2023/07/06 07:22:07;;;;;;;3.53;2.22;;;20.80;80.20;;;;;;10439042;28;20630;-90
2023/07/06 07:27:11;;;;;;;3.42;2.13;;;21.00;80.60;;;;;;10422751;28;20320;-90
2023/07/06 07:32:15;;;;;;;3.22;2.53;;;20.80;72.50;;;;;;10420639;28;20227;-90
2023/07/06 07:37:19;;;;;;;3.33;2.72;;;20.90;66.70;;;;;;10438430;28;20202;-90
2023/07/06 07:42:22;;;;;;;6.55;3.20;;;21.00;68.60;;;;;;10454986;28;20242;-90
2023/07/06 07:47:27;;;;;;;4.47;3.00;;;21.10;68.10;;;;;;10454995;28;20258;-90
2023/07/06 07:52:30;;;;;;;5.47;2.53;;;21.20;73.60;;;;;;10421222;28;20312;-89
2023/07/06 07:57:32;;;;;;;4.60;2.97;;;21.30;72.70;;;;;;10436348;28;20211;-91
2023/07/06 08:02:35;;;;;;;6.95;2.60;;;21.20;72.20;;;;;;10454155;28;20250;-90
2023/07/06 08:07:38;;;;;;;5.78;2.60;;;21.00;70.90;;;;;;10454110;28;20724;-90
2023/07/06 08:12:40;;;;;;;3.80;2.50;;;21.30;79.40;;;;;;10436385;28;20207;-91
2023/07/06 08:17:43;;;;;;;6.78;2.63;;;21.50;72.40;;;;;;10437067;28;20268;-89
2023/07/06 08:22:46;;;;;;;3.38;2.50;;;21.50;73.10;;;;;;10453548;28;20202;-89
2023/07/06 08:27:49;;;;;;;5.05;2.63;;;21.50;74.60;;;;;;10419445;28;20232;-89
2023/07/06 08:32:51;;;;;;;3.85;2.42;;;21.60;65.80;;;;;;10394587;28;20247;-88
2023/07/06 08:37:54;;;;;;;4.60;3.15;;;21.60;68.90;;;;;;10411810;28;20305;-90
2023/07/06 08:42:59;;;;;;;3.25;2.20;;;21.80;69.00;;;;;;10411303;28;20563;-90
2023/07/06 08:48:01;;;;;;;2.97;1.80;;;21.90;70.40;;;;;;10377251;28;20272;-90
2023/07/06 08:53:05;;;;;;;5.22;3.10;;;22.00;71.70;;;;;;10411279;28;20274;-90
2023/07/06 08:58:18;;;;;;;3.67;2.83;;;21.90;60.20;;;;;;10393597;28;20265;-89
2023/07/06 09:03:22;;;;;;;9.88;3.05;;;22.10;68.30;;;;;;10392934;28;20266;-90
2023/07/06 09:08:26;;;;;;;4.63;3.08;;;22.00;66.60;;;;;;10410983;28;20271;-90
2023/07/06 09:13:33;;;;;;;2.95;1.88;;;21.70;63.20;;;;;;10395065;28;20628;-91
2023/07/06 09:18:36;;;;;;;8.00;2.17;;;22.00;70.80;;;;;;10396452;28;20211;-90
2023/07/06 09:23:39;;;;;;;3.28;2.75;;;22.40;69.00;;;;;;10393902;28;20250;-89
2023/07/06 09:28:41;;;;;;;4.47;3.65;;;22.50;63.00;;;;;;10408980;28;20651;-89
2023/07/06 09:33:49;;;;;;;4.07;2.22;;;22.40;55.30;;;;;;10393046;28;20212;-90
2023/07/06 09:38:52;;;;;;;5.43;2.70;;;22.50;56.90;;;;;;10393136;28;20530;-90
2023/07/06 09:44:03;;;;;;;3.97;1.88;;;22.60;60.20;;;;;;10376701;28;20273;-90
2023/07/06 09:49:16;;;;;;;5.10;2.35;;;22.70;62.10;;;;;;10430077;28;20238;-90
2023/07/06 09:54:24;;;;;;;3.60;2.40;;;23.00;56.70;;;;;;10455752;28;20667;-89
2023/07/06 09:59:27;;;;;;;7.35;2.58;;;23.00;51.90;;;;;;10441196;28;20537;-89
2023/07/06 10:04:38;;;;;;;6.90;2.58;;;23.30;56.10;;;;;;10441988;28;20614;-89
2023/07/06 10:09:51;;;;;;;3.20;2.08;;;23.60;53.90;;;;;;10443297;28;20203;-91
2023/07/06 10:14:54;;;;;;;2.90;1.98;;;23.80;56.50;;;;;;10458227;28;20268;-92
2023/07/06 10:20:05;;;;;;;2.30;1.98;;;23.60;54.70;;;;;;10441971;28;20215;-91
2023/07/06 10:25:18;;;;;;;5.43;2.42;;;23.30;51.90;;;;;;10440967;28;20274;-93
2023/07/06 10:30:27;;;;;;;3.00;1.83;;;23.30;51.00;;;;;;10441417;28;20249;-92
2023/07/06 10:35:36;;;;;;;7.70;2.78;;;23.70;47.00;;;;;;10440532;28;20247;-92
2023/07/06 10:40:39;;;;;;;6.72;2.75;;;24.00;48.40;;;;;;10457315;28;20662;-92
2023/07/06 10:45:48;;;;;;;4.72;2.22;;;24.20;50.10;;;;;;10456225;28;20308;-92
2023/07/06 10:51:05;;;;;;;2.78;2.47;;;24.10;44.40;;;;;;10440491;28;20316;-92
2023/07/06 10:56:11;;;;;;;1.98;1.63;;;23.90;44.10;;;;;;10439104;28;20203;-93
2023/07/06 11:01:19;;;;;;;2.42;2.05;;;23.70;50.40;;;;;;10407551;28;20216;-92
2023/07/06 11:06:43;;;;;;;3.92;2.08;;;23.70;51.30;;;;;;10398171;28;20309;-91
2023/07/06 11:11:52;;;;;;;8.38;3.00;;;23.70;46.40;;;;;;10397928;28;20574;-91
2023/07/06 11:17:03;;;;;;;2.35;2.00;;;23.80;40.40;;;;;;10397907;28;20554;-91
2023/07/06 11:22:11;;;;;;;2.25;2.05;;;23.90;42.80;;;;;;10398386;28;20230;-91
2023/07/06 11:27:22;;;;;;;2.85;2.08;;;23.90;46.10;;;;;;10396840;28;20285;-91
2023/07/06 11:32:46;;;;;;;4.88;2.10;;;24.10;47.80;;;;;;10415941;28;20207;-92
2023/07/06 11:38:21;;;;;;;4.68;2.10;;;24.20;47.70;;;;;;10415172;28;20211;-91
2023/07/06 11:43:34;;;;;;;2.42;1.83;;;24.20;41.60;;;;;;10397689;28;20239;-92
2023/07/06 11:49:02;;;;;;;5.35;2.55;;;24.40;44.50;;;;;;10396950;28;20686;-92
2023/07/06 11:54:29;;;;;;;3.78;1.85;;;24.30;36.60;;;;;;10395481;28;20570;-92
2023/07/06 11:59:37;;;;;;;3.38;2.45;;;24.00;40.50;;;;;;10396527;28;20258;-91
2023/07/06 12:04:42;;;;;;;2.13;1.92;;;23.70;40.00;;;;;;10405294;28;20219;-90
2023/07/06 12:09:47;;;;;;;3.35;2.75;;;23.50;46.40;;;;;;10397376;28;20327;-90
2023/07/06 12:14:57;;;;;;;2.45;1.80;;;23.40;39.10;;;;;;10396288;28;20234;-90
2023/07/06 12:20:11;;;;;;;1.63;1.45;;;23.30;44.20;;;;;;10395955;28;20615;-91
2023/07/06 12:25:24;;;;;;;3.30;1.88;;;23.40;47.30;;;;;;10379941;28;20262;-90
2023/07/06 12:30:33;;;;;;;2.53;1.80;;;23.20;43.80;;;;;;10387294;28;20207;-90
2023/07/06 12:35:37;;;;;;;2.50;1.77;;;23.40;44.60;;;;;;10395182;28;20234;-91
2023/07/06 12:40:40;;;;;;;2.45;2.13;;;23.50;48.20;;;;;;10395158;28;20777;-92
2023/07/06 12:45:44;;;;;;;30.27;2.70;;;23.50;47.80;;;;;;10378054;28;20749;-92
2023/07/06 12:50:49;;;;;;;3.97;2.58;;;23.60;38.40;;;;;;10394392;28;20285;-90
2023/07/06 12:56:00;;;;;;;3.17;2.25;;;23.90;40.50;;;;;;10394124;28;20278;-89
2023/07/06 13:01:18;;;;;;;4.57;2.05;;;24.00;36.40;;;;;;10393534;28;20297;-92
2023/07/06 13:06:23;;;;;;;2.53;1.73;;;24.10;41.20;;;;;;10394036;28;20312;-91
2023/07/06 13:11:26;;;;;;;1.90;1.42;;;23.90;41.20;;;;;;10393254;28;20211;-91
2023/07/06 13:16:39;;;;;;;2.55;2.20;;;24.00;43.80;;;;;;10403614;28;20262;-91
2023/07/06 13:21:42;;;;;;;2.38;1.63;;;24.10;43.80;;;;;;10411110;28;20243;-90
2023/07/06 13:26:45;;;;;;;2.83;1.83;;;24.00;40.30;;;;;;10409973;28;20330;-90
2023/07/06 13:31:51;;;;;;;4.80;2.30;;;24.20;40.40;;;;;;10409856;28;20665;-90
2023/07/06 13:36:57;;;;;;;3.47;2.22;;;24.30;35.90;;;;;;10377230;28;20235;-91
2023/07/06 13:42:00;;;;;;;2.67;1.92;;;24.40;37.10;;;;;;10393560;28;20297;-90
2023/07/06 13:47:08;;;;;;;1.70;1.58;;;24.40;36.80;;;;;;10410375;28;20259;-91
2023/07/06 13:52:14;;;;;;;3.97;2.30;;;24.30;32.70;;;;;;10410127;28;20227;-93
2023/07/06 13:57:20;;;;;;;4.80;2.42;;;24.20;34.10;;;;;;10391690;28;20215;-90
2023/07/06 14:02:23;;;;;;;5.00;2.20;;;24.20;32.20;;;;;;10392583;28;20255;-90
2023/07/06 14:07:26;;;;;;;2.53;1.80;;;24.40;34.50;;;;;;10409581;28;20266;-90
2023/07/06 14:12:28;;;;;;;5.25;1.85;;;24.10;34.00;;;;;;10392205;28;20274;-87
2023/07/06 14:17:32;;;;;;;2.42;2.15;;;23.90;33.80;;;;;;10408568;28;20575;-87
2023/07/06 14:22:35;;;;;;;2.92;2.58;;;23.80;32.90;;;;;;10408449;28;20290;-88
2023/07/06 14:34:08;;;;;;;4.22;2.05;;;24.00;27.90;;;;;;10414932;28;20267;-87
2023/07/06 14:39:10;;;;;;;4.40;2.10;;;23.90;35.90;;;;;;10378893;28;20309;-89
2023/07/06 14:44:13;;;;;;;7.55;2.38;;;23.90;34.30;;;;;;10398545;28;20261;-86
2023/07/06 14:49:16;;;;;;;2.60;2.03;;;23.90;38.90;;;;;;10417705;28;20698;-86
2023/07/06 14:54:19;;;;;;;2.88;2.20;;;23.80;27.50;;;;;;10416416;28;20693;-89
2023/07/06 14:59:21;;;;;;;2.33;2.13;;;23.90;38.00;;;;;;10398219;28;20231;-86
2023/07/06 15:04:24;;;;;;;4.47;2.40;;;24.30;31.80;;;;;;10415002;28;20296;-87
2023/07/06 15:09:27;;;;;;;2.45;2.08;;;24.40;25.00;;;;;;10396841;28;20239;-88
2023/07/06 15:14:32;;;;;;;6.57;2.00;;;24.30;30.30;;;;;;10415600;28;20650;-88
2023/07/06 15:19:34;;;;;;;4.40;1.77;;;24.30;32.60;;;;;;10396715;28;20578;-87
2023/07/06 15:24:37;;;;;;;5.55;3.30;;;24.10;28.20;;;;;;10414853;28;20208;-88
2023/07/06 15:29:39;;;;;;;3.00;2.40;;;24.10;23.60;;;;;;10396736;28;20320;-89
2023/07/06 15:34:42;;;;;;;3.33;1.92;;;24.40;24.90;;;;;;10396503;28;20273;-88
2023/07/06 15:40:03;;;;;;;4.07;2.00;;;24.20;24.10;;;;;;10399304;28;20335;-88
2023/07/06 15:45:07;;;;;;;2.72;2.30;;;24.20;23.80;;;;;;10395734;28;20207;-89
2023/07/06 15:50:10;;;;;;;3.00;2.20;;;24.20;25.70;;;;;;10395490;28;20737;-88
2023/07/06 15:55:13;;;;;;;2.20;1.98;;;24.20;21.50;;;;;;10414517;28;20701;-89
2023/07/06 16:00:18;;;;;;;2.50;1.73;;;24.10;25.50;;;;;;10395971;28;20239;-87
2023/07/06 16:05:22;;;;;;;3.30;1.95;;;24.00;24.80;;;;;;10394884;28;20603;-88
2023/07/06 16:10:25;;;;;;;3.17;2.15;;;24.20;26.80;;;;;;10413471;28;20232;-88
2023/07/06 16:15:28;;;;;;;2.63;2.28;;;24.30;23.70;;;;;;10412467;28;20655;-89
2023/07/06 16:20:33;;;;;;;3.13;2.10;;;24.30;28.10;;;;;;10405134;28;20215;-89
2023/07/06 16:25:35;;;;;;;2.38;1.77;;;24.30;26.80;;;;;;10409659;28;20214;-88
2023/07/06 16:30:38;;;;;;;2.30;2.10;;;24.40;26.30;;;;;;10432672;28;20203;-89
2023/07/06 16:35:41;;;;;;;6.03;2.20;;;24.40;26.70;;;;;;10436321;28;20210;-88
2023/07/06 16:40:43;;;;;;;2.33;2.00;;;24.40;26.30;;;;;;10453575;28;20195;-89
2023/07/06 16:45:49;;;;;;;2.13;1.75;;;24.50;27.70;;;;;;10419064;28;20293;-88
2023/07/06 16:50:55;;;;;;;2.92;2.15;;;24.50;26.40;;;;;;10435031;28;20304;-88
2023/07/06 16:55:59;;;;;;;4.93;2.30;;;24.50;26.80;;;;;;10418679;28;20199;-88
2023/07/06 17:01:06;;;;;;;2.22;1.95;;;24.40;25.40;;;;;;10433856;28;20203;-88
2023/07/06 17:06:09;;;;;;;3.65;2.38;;;24.40;25.70;;;;;;10451509;28;20254;-88
2023/07/06 17:11:12;;;;;;;1.95;1.67;;;24.40;28.10;;;;;;10417794;28;20225;-88
2023/07/06 17:16:14;;;;;;;5.03;2.20;;;24.30;23.00;;;;;;10434068;28;20359;-89
2023/07/06 17:21:17;;;;;;;4.75;1.83;;;24.20;27.50;;;;;;10418357;28;20207;-89
2023/07/06 17:26:20;;;;;;;3.38;2.22;;;24.10;25.80;;;;;;10434267;28;20273;-88
2023/07/06 17:31:22;;;;;;;3.28;2.40;;;23.90;26.80;;;;;;10434750;28;20257;-89
2023/07/06 17:36:25;;;;;;;3.40;1.88;;;23.80;24.60;;;;;;10416119;28;20277;-89
2023/07/06 17:41:27;;;;;;;2.70;1.98;;;23.70;27.60;;;;;;10410062;28;20661;-88
2023/07/06 17:46:30;;;;;;;4.53;2.63;;;23.50;24.40;;;;;;10409157;28;20674;-88
2023/07/06 17:51:33;;;;;;;3.35;2.30;;;23.50;25.20;;;;;;10411069;28;20259;-89
2023/07/06 17:56:36;;;;;;;3.38;2.33;;;23.40;26.00;;;;;;10392833;28;20203;-89
2023/07/06 18:01:38;;;;;;;3.47;2.05;;;23.30;26.10;;;;;;10409182;28;20208;-89
2023/07/06 18:06:41;;;;;;;3.33;2.42;;;23.30;27.30;;;;;;10408999;28;20296;-88
2023/07/06 18:11:43;;;;;;;6.65;2.65;;;23.20;26.70;;;;;;10408842;28;20243;-88
2023/07/06 18:16:46;;;;;;;6.72;2.78;;;23.00;26.50;;;;;;10417002;28;20651;-88
2023/07/06 18:21:48;;;;;;;3.80;2.55;;;22.70;27.00;;;;;;10417873;28;20200;-89
2023/07/06 18:26:54;;;;;;;3.65;2.20;;;22.40;28.60;;;;;;10416067;28;20271;-89
2023/07/06 18:31:57;;;;;;;9.27;2.13;;;22.00;30.00;;;;;;10398885;28;20243;-90
2023/07/06 18:36:59;;;;;;;2.35;1.88;;;21.80;31.80;;;;;;10416401;28;20733;-87
2023/07/06 18:42:02;;;;;;;4.82;1.77;;;21.60;33.80;;;;;;10419973;28;20235;-88
2023/07/06 18:47:05;;;;;;;3.72;2.47;;;21.20;42.80;;;;;;10398187;28;20297;-88
2023/07/06 18:52:08;;;;;;;5.55;2.22;;;20.60;46.70;;;;;;10382946;28;20254;-89
2023/07/06 18:57:11;;;;;;;6.05;2.53;;;20.20;50.50;;;;;;10382639;28;20598;-88
2023/07/06 19:02:15;;;;;;;3.20;2.30;;;19.80;60.50;;;;;;10398347;28;20239;-88
2023/07/06 19:07:17;;;;;;;2.60;2.03;;;19.40;68.10;;;;;;10399765;28;20714;-88
2023/07/06 19:12:20;;;;;;;5.57;3.33;;;19.20;68.30;;;;;;10416427;28;20230;-88
2023/07/06 19:17:23;;;;;;;6.60;4.43;;;19.10;73.00;;;;;;10400284;28;20234;-89
2023/07/06 19:22:25;;;;;;;3.40;2.33;;;18.80;81.90;;;;;;10417855;28;20253;-89
2023/07/06 19:27:28;;;;;;;4.18;2.60;;;18.60;83.10;;;;;;10399562;28;20305;-88
2023/07/06 19:32:30;;;;;;;3.42;3.08;;;18.50;88.90;;;;;;10399367;28;20203;-89
2023/07/06 19:37:33;;;;;;;5.10;2.83;;;18.40;89.80;;;;;;10416961;28;20246;-88
2023/07/06 19:42:36;;;;;;;5.88;2.55;;;18.10;92.40;;;;;;10399617;28;20207;-88
2023/07/06 19:48:06;;;;;;;4.97;2.70;;;18.00;92.20;;;;;;10381880;28;20631;-92
2023/07/06 19:53:09;;;;;;;3.13;2.47;;;17.70;96.00;;;;;;10439496;28;20292;-92
2023/07/06 19:58:12;;;;;;;7.28;3.38;;;17.90;96.40;;;;;;10438337;28;20234;-93
2023/07/06 20:03:15;;;;;;;5.18;3.25;;;17.70;97.40;;;;;;10456225;28;20203;-90
2023/07/06 20:08:20;;;;;;;4.40;3.47;;;17.60;98.00;;;;;;10455796;28;20227;-91
2023/07/06 20:13:24;;;;;;;4.90;3.25;;;17.40;98.60;;;;;;10422887;28;20862;-90
2023/07/06 20:18:27;;;;;;;10.70;3.47;;;17.30;98.30;;;;;;10437938;28;20207;-90
2023/07/06 20:23:31;;;;;;;5.65;2.63;;;17.00;99.90;;;;;;10438267;28;20261;-90
2023/07/06 20:28:33;;;;;;;4.20;3.55;;;16.70;99.90;;;;;;10447156;28;20220;-90
2023/07/06 20:33:36;;;;;;;5.82;4.20;;;16.70;99.90;;;;;;10413303;28;20200;-91
2023/07/06 20:38:39;;;;;;;9.02;4.30;;;16.10;99.90;;;;;;10396560;28;20199;-90
2023/07/06 20:43:42;;;;;;;6.50;4.15;;;15.80;99.90;;;;;;10412435;28;20203;-90
2023/07/06 20:48:45;;;;;;;3.85;3.33;;;16.00;99.90;;;;;;10396201;28;20223;-91
2023/07/06 20:53:48;;;;;;;7.30;4.07;;;16.10;99.90;;;;;;10412793;28;20304;-91
2023/07/06 20:58:50;;;;;;;5.55;4.10;;;16.00;99.90;;;;;;10395694;28;20211;-91
2023/07/06 21:03:53;;;;;;;4.53;3.03;;;15.80;99.90;;;;;;10395864;28;20234;-91
2023/07/06 21:08:56;;;;;;;7.65;3.50;;;15.60;99.90;;;;;;10396143;28;20223;-90
2023/07/06 21:13:58;;;;;;;3.85;3.17;;;15.50;99.90;;;;;;10395252;28;20593;-91
2023/07/06 21:19:01;;;;;;;5.30;3.67;;;15.30;99.90;;;;;;10412029;28;20244;-91
2023/07/06 21:24:06;;;;;;;5.53;3.72;;;15.20;99.90;;;;;;10395298;28;20203;-91
2023/07/06 21:29:10;;;;;;;11.07;4.07;;;15.10;99.90;;;;;;10395392;28;20611;-91
2023/07/06 21:34:15;;;;;;;7.47;3.67;;;15.00;99.90;;;;;;10411877;28;20199;-91
2023/07/06 21:39:23;;;;;;;4.35;3.72;;;14.90;99.90;;;;;;10395070;28;20207;-91
2023/07/06 21:44:40;;;;;;;4.45;3.20;;;14.80;99.90;;;;;;10411454;28;20207;-93
2023/07/06 21:49:43;;;;;;;5.70;3.80;;;14.70;99.90;;;;;;10398488;28;20266;-90
2023/07/06 21:54:45;;;;;;;5.47;4.05;;;14.80;99.90;;;;;;10403745;28;20275;-91
2023/07/06 21:59:48;;;;;;;5.25;4.50;;;14.80;99.90;;;;;;10402828;28;20203;-91
2023/07/06 22:04:50;;;;;;;4.38;3.97;;;14.80;99.90;;;;;;10420553;28;20546;-91
2023/07/06 22:09:53;;;;;;;7.68;5.95;;;14.80;99.90;;;;;;10420572;28;20223;-91
2023/07/06 22:14:56;;;;;;;6.78;4.68;;;14.70;99.90;;;;;;10402888;28;20269;-91
2023/07/06 22:19:58;;;;;;;7.03;4.93;;;14.50;99.90;;;;;;10419373;28;20594;-91
2023/07/06 22:25:01;;;;;;;4.00;3.60;;;14.40;99.90;;;;;;10402352;28;20297;-91
2023/07/06 22:30:06;;;;;;;6.05;3.80;;;14.40;99.90;;;;;;10401334;28;20281;-90
2023/07/06 22:35:08;;;;;;;7.43;3.85;;;14.50;99.90;;;;;;10400793;28;20554;-91
2023/07/06 22:40:11;;;;;;;4.78;4.30;;;14.20;99.90;;;;;;10401862;28;20254;-90
2023/07/06 22:45:14;;;;;;;4.78;4.35;;;14.30;99.90;;;;;;10418247;28;20204;-91
2023/07/06 22:50:17;;;;;;;6.03;4.88;;;14.20;99.90;;;;;;10418088;28;20896;-91
2023/07/06 22:55:20;;;;;;;3.95;3.65;;;14.20;99.90;;;;;;10401021;28;20208;-91
2023/07/06 23:00:24;;;;;;;5.68;4.70;;;14.10;99.90;;;;;;10400484;28;20262;-93
2023/07/06 23:05:26;;;;;;;5.68;4.68;;;14.00;99.90;;;;;;10399855;28;20207;-91
2023/07/06 23:10:30;;;;;;;5.70;4.93;;;14.10;99.90;;;;;;10399240;28;20263;-92
2023/07/06 23:15:33;;;;;;;7.35;5.65;;;14.10;99.90;;;;;;10398703;28;20207;-91
2023/07/06 23:20:38;;;;;;;14.60;7.45;;;14.00;99.90;;;;;;10398734;28;20733;-90
2023/07/06 23:25:41;;;;;;;8.10;6.35;;;13.90;99.90;;;;;;10416866;28;20195;-90
2023/07/06 23:30:52;;;;;;;4.32;3.80;;;13.90;99.90;;;;;;10396632;28;20718;-91
2023/07/06 23:35:55;;;;;;;12.68;5.45;;;13.80;99.90;;;;;;10414715;28;20211;-90
2023/07/06 23:40:58;;;;;;;6.88;6.20;;;13.90;99.90;;;;;;10396574;28;20203;-91
2023/07/06 23:46:01;;;;;;;6.75;5.00;;;13.70;99.90;;;;;;10396594;28;20239;-90
2023/07/06 23:51:03;;;;;;;6.35;5.03;;;13.70;99.90;;;;;;10395738;28;20271;-91
2023/07/06 23:56:06;;;;;;;6.15;5.57;;;13.70;99.90;;;;;;10396361;28;20655;-89
